Flight Track Log - Related Links

Times and Time Zones

All times are in EDT time to prevent confusion due to time zone crossing. See the N474RL flight status page for this flight to view local times or setup timezone preferences in your user account.

Time Position Orientation Groundspeed Altitude Reporting Facility
EDT Latitude Longitude Course Direction KTS MPH feet Rate Location/Type
Wed 09:51:00 AM 34.9160 -82.1075 53° Northeast  Level FlightAware Approximate
Wed 09:52:00 AM 34.9431 -82.0634 53° Northeast  Level FlightAware Approximate
Wed 09:53:00 AM 34.9702 -82.0194 53° Northeast  Level FlightAware Approximate
Wed 09:54:00 AM 34.9974 -81.9753 53° Northeast  Level FlightAware Approximate
Wed 09:55:00 AM 35.0245 -81.9311 53° Northeast  Level FlightAware Approximate
Wed 09:56:00 AM 35.0637 -81.9188 357° North  Level FlightAware Approximate
Wed 09:57:00 AM 35.1088 -81.9220 357° North  Level FlightAware Approximate
Wed 09:57:41 AM 34.9997 -81.9647 North 185 213 7,000  Level Atlanta Center
Wed 09:58:00 AM 35.1539 -81.9253 357° North  Level FlightAware Approximate
Wed 09:58:41 AM 35.0450 -81.9306 32° Northeast 192 221 7,000  Level Atlanta Center
Wed 09:59:00 AM 35.1990 -81.9285 357° North  Level FlightAware Approximate
Wed 09:59:41 AM 35.0931 -81.9344 356° North 187 215 7,000  Level Atlanta Center
Wed 10:00:00 AM 35.2441 -81.9317 357° North  Level FlightAware Approximate
Wed 10:00:41 AM 35.1369 -81.9333 North 198 228 7,000  Level Atlanta Center
Wed 10:01:00 AM 35.2892 -81.9333 North  Level FlightAware Approximate
Wed 10:01:41 AM 35.1850 -81.9372 356° North 196 226 7,100  Level Atlanta Center
Wed 10:02:41 AM 35.2331 -81.9383 359° North 181 208 7,100  Level Atlanta Center
Wed 10:03:41 AM 35.2789 -81.9397 359° North 176 203 7,100  Level Atlanta Center
Wed 10:04:41 AM 35.3289 -81.9436 356° North 171 197 7,100  Level Atlanta Center
Wed 10:05:41 AM 35.3769 -81.9425 North 171 197 7,100  Level Atlanta Center
Wed 10:06:41 AM 35.4272 -81.9464 356° North 176 203 7,100  Level Atlanta Center
Wed 10:07:41 AM 35.4750 -81.9475 359° North 176 203 7,100  Level Atlanta Center
Wed 10:08:41 AM 35.5253 -81.9514 356° North 176 203 7,100  Level Atlanta Center
Wed 10:09:41 AM 35.5664 -81.9222 30° Northeast 176 203 7,100 -50 Level Atlanta Center
Wed 10:10:41 AM 35.5925 -81.8578 63° Northeast 177 204 7,000 -50 Descending Atlanta Center
Wed 10:11:41 AM 35.6206 -81.8008 59° Northeast 182 209 7,000  Level Atlanta Center
Wed 10:12:41 AM 35.6467 -81.7386 63° Northeast 188 216 7,000  Level Atlanta Center
Wed 10:13:41 AM 35.6747 -81.6817 59° Northeast 188 216 7,000  Level Atlanta Center
Wed 10:14:41 AM 35.7008 -81.6222 62° Northeast 188 216 7,000  Level Atlanta Center
Wed 10:15:41 AM 35.7267 -81.5650 61° Northeast 193 222 7,000  Level Atlanta Center
Wed 10:16:41 AM 35.7528 -81.5081 61° Northeast 193 222 7,000  Level Atlanta Center
Wed 10:17:41 AM 35.7786 -81.4483 62° Northeast 193 222 7,000  Level Atlanta Center
Wed 10:18:41 AM 35.8044 -81.3911 61° Northeast 188 216 7,000  Level Atlanta Center
Wed 10:19:41 AM 35.8303 -81.3314 62° Northeast 188 216 7,000  Level Atlanta Center
Wed 10:20:41 AM 35.8581 -81.2717 60° Northeast 188 216 7,000  Level Atlanta Center
Wed 10:21:41 AM 35.8819 -81.2144 63° Northeast 188 216 7,000  Level Atlanta Center
Wed 10:22:41 AM 35.9056 -81.1519 65° Northeast 188 216 7,000 -15 Level Atlanta Center
Wed 10:28:26 AM 36.0515 -80.8004 63° Northeast 193 222 6,900 -16 Descending FlightAware ADS-B (EFYL / YLI)
Wed 10:28:48 AM 36.0582 -80.7841 63° Northeast 193 222 6,900  Level FlightAware ADS-B (EFYL / YLI)
Wed 10:29:28 AM 36.0752 -80.7428 63° Northeast 192 221 6,900  Level FlightAware ADS-B (EFYL / YLI)
Wed 10:29:48 AM 36.0847 -80.7198 63° Northeast 193 222 6,900  Level FlightAware ADS-B (EFYL / YLI)
Wed 10:30:08 AM 36.0928 -80.7000 63° Northeast 193 222 6,900  Level FlightAware ADS-B (EFYL / YLI)
Wed 10:30:27 AM 36.1001 -80.6822 63° Northeast 194 223 6,900  Level FlightAware ADS-B (EFYL / YLI)
Wed 10:30:52 AM 36.1102 -80.6578 63° Northeast 193 222 6,900  Level FlightAware ADS-B (NZFP)
Wed 10:31:08 AM 36.1171 -80.6410 63° Northeast 193 222 6,900  Level FlightAware ADS-B (EFYL / YLI)
Wed 10:31:25 AM 36.1238 -80.6247 63° Northeast 194 223 6,900  Level FlightAware ADS-B (EFYL / YLI)
Wed 10:31:48 AM 36.1326 -80.6032 63° Northeast 196 226 6,900  Level FlightAware ADS-B (EFYL / YLI)
Wed 10:32:08 AM 36.1413 -80.5818 63° Northeast 196 226 6,900  Level FlightAware ADS-B (EFYL / YLI)
Wed 10:32:28 AM 36.1499 -80.5609 63° Northeast 195 224 6,900  Level FlightAware ADS-B (EFYL / YLI)
Wed 10:32:52 AM 36.1596 -80.5370 63° Northeast 195 224 6,900  Level FlightAware ADS-B (NZFP)
Wed 10:33:07 AM 36.1653 -80.5233 63° Northeast 195 224 6,900  Level FlightAware ADS-B (EFYL / YLI)
Wed 10:33:28 AM 36.1740 -80.5020 63° Northeast 195 224 6,900  Level FlightAware ADS-B (EFYL / YLI)
Wed 10:33:46 AM 36.1811 -80.4844 63° Northeast 195 224 6,900 -171 Level FlightAware ADS-B (EFYL / YLI)
Wed 10:34:03 AM 36.1870 -80.4700 63° Northeast 201 231 6,800 -286 Descending FlightAware ADS-B (EFYL / YLI)
Wed 10:34:28 AM 36.1984 -80.4420 63° Northeast 206 237 6,700 -400 Descending FlightAware ADS-B (EFYL / YLI)
Wed 10:34:48 AM 36.2078 -80.4189 63° Northeast 209 241 6,500 -600 Descending FlightAware ADS-B (EFYL / YLI)
Wed 10:35:08 AM 36.2161 -80.3987 63° Northeast 212 244 6,300 -462 Descending FlightAware ADS-B (EFYL / YLI)
Wed 10:35:27 AM 36.2243 -80.3784 63° Northeast 212 244 6,200 -450 Descending FlightAware ADS-B (EFYL / YLI)
Wed 10:35:48 AM 36.2304 -80.3634 63° Northeast 212 244 6,000 -585 Descending FlightAware ADS-B (EFYL / YLI)
Wed 10:36:08 AM 36.2428 -80.3331 63° Northeast 212 244 5,800 -450 Descending FlightAware ADS-B (EFYL / YLI)
Wed 10:36:28 AM 36.2514 -80.3120 63° Northeast 210 242 5,700 -450 Descending FlightAware ADS-B (EFYL / YLI)
Wed 10:36:48 AM 36.2603 -80.2899 63° Northeast 209 241 5,500 -514 Descending FlightAware ADS-B (EFYL / YLI)
Wed 10:37:03 AM 36.2663 -80.2751 64° Northeast 208 239 5,400 -558 Descending FlightAware ADS-B (EFYL / YLI)
Wed 10:37:31 AM 36.2785 -80.2452 63° Northeast 205 236 5,100 -643 Descending FlightAware ADS-B (EFYL / YLI)
Wed 10:44:00 AM 36.4054 -79.9116 64° Northeast  Level FlightAware Approximate
Wed 10:45:00 AM 36.4274 -79.8618 58° Northeast  Level FlightAware Approximate
Wed 10:46:00 AM 36.4333 -79.8500 58° Northeast  Level FlightAware Approximate

Login

Don't have an account? Register now (free) for customized features, flight alerts, and more!